Time;durP1;ratioP1;P1;durP2;ratioP2;P2;SDS_P1;SDS_P2;PMS_P1;PMS_P2;Temp;Humidity;BMP_temperature;BMP_pressure;BME280_temperature;BME280_humidity;BME280_pressure;Samples;Min_cycle;Max_cycle;Signal;HPM_P1;HPM_P2
2023/04/16 00:01:43;;;;;;;22.00;15.90;;;;;;;8.96;100.00;100834.97;7396275;19;20027;-70
2023/04/16 00:04:12;;;;;;;22.33;15.98;;;;;;;8.95;100.00;100833.22;7395284;19;20018;-69
2023/04/16 00:06:40;;;;;;;21.38;15.65;;;;;;;8.93;100.00;100828.91;7394898;19;20036;-69
2023/04/16 00:09:11;;;;;;;17.83;13.88;;;;;;;8.90;100.00;100837.66;7396429;19;20022;-70
2023/04/16 00:11:40;;;;;;;20.58;15.10;;;;;;;8.87;100.00;100845.56;7394296;19;20023;-70
2023/04/16 00:14:08;;;;;;;20.90;14.73;;;;;;;8.84;100.00;100836.88;7395111;19;20022;-70
2023/04/16 00:16:37;;;;;;;19.25;14.70;;;;;;;8.82;100.00;100843.88;7395256;19;20011;-69
2023/04/16 00:19:05;;;;;;;24.80;15.50;;;;;;;8.78;100.00;100840.44;7394609;19;20028;-70
2023/04/16 00:21:34;;;;;;;20.67;15.82;;;;;;;8.75;100.00;100846.56;7393957;19;20018;-70
2023/04/16 00:24:02;;;;;;;19.40;14.23;;;;;;;8.72;100.00;100851.84;7393942;19;20018;-70
2023/04/16 00:26:34;;;;;;;18.83;14.73;;;;;;;8.70;100.00;100847.53;7396028;19;20086;-70
2023/04/16 00:29:02;;;;;;;18.75;14.30;;;;;;;8.68;100.00;100847.56;7396393;19;20019;-70
2023/04/16 00:31:32;;;;;;;23.45;16.00;;;;;;;8.67;100.00;100852.78;7394077;19;20089;-70
2023/04/16 00:34:01;;;;;;;23.35;15.85;;;;;;;8.65;100.00;100850.19;7394557;19;20035;-70
2023/04/16 00:36:30;;;;;;;19.77;14.93;;;;;;;8.63;100.00;100860.69;7394070;19;20035;-69
2023/04/16 00:38:58;;;;;;;25.65;16.77;;;;;;;8.63;100.00;100860.69;7395144;19;20021;-69
2023/04/16 00:41:27;;;;;;;28.08;16.67;;;;;;;8.62;100.00;100864.16;7393886;19;20022;-69
2023/04/16 00:43:58;;;;;;;22.73;16.23;;;;;;;8.62;100.00;100864.16;7393884;19;20025;-69
2023/04/16 00:46:28;;;;;;;22.58;16.83;;;;;;;8.63;100.00;100859.78;7395079;19;20074;-70
2023/04/16 00:48:57;;;;;;;22.60;16.17;;;;;;;8.64;100.00;100864.16;7391813;19;20023;-70
2023/04/16 00:51:26;;;;;;;23.17;16.08;;;;;;;8.64;100.00;100862.41;7393484;19;20019;-70
2023/04/16 00:53:55;;;;;;;23.60;17.02;;;;;;;8.64;100.00;100870.25;7394031;19;20014;-69
2023/04/16 00:56:24;;;;;;;22.00;16.63;;;;;;;8.64;100.00;100865.03;7392944;19;20388;-69
2023/04/16 00:58:53;;;;;;;24.17;16.90;;;;;;;8.66;100.00;100869.34;7393274;19;20018;-69
2023/04/16 01:01:24;;;;;;;21.88;16.13;;;;;;;8.64;100.00;100867.66;7392787;19;20027;-69
2023/04/16 01:03:52;;;;;;;23.13;16.70;;;;;;;8.64;100.00;100872.88;7394095;19;20018;-68
2023/04/16 01:06:21;;;;;;;23.15;16.23;;;;;;;8.64;100.00;100870.25;7394889;19;20018;-68
2023/04/16 01:08:50;;;;;;;22.30;17.42;;;;;;;8.63;100.00;100873.75;7394792;19;20018;-67
2023/04/16 01:11:18;;;;;;;25.48;17.77;;;;;;;8.62;100.00;100872.00;7392400;19;20505;-67
2023/04/16 01:13:46;;;;;;;22.02;16.63;;;;;;;8.62;100.00;100874.63;7394288;19;20015;-67
2023/04/16 01:16:15;;;;;;;24.33;17.60;;;;;;;8.63;100.00;100880.72;7393898;19;20014;-67
2023/04/16 01:18:46;;;;;;;22.77;17.48;;;;;;;8.63;100.00;100878.97;7395047;19;20011;-68
2023/04/16 01:21:17;;;;;;;22.35;16.08;;;;;;;8.62;100.00;100881.63;7393157;19;20034;-67
2023/04/16 01:23:46;;;;;;;20.05;15.20;;;;;;;8.62;100.00;100879.88;7393584;19;20026;-67
2023/04/16 01:26:14;;;;;;;24.88;17.92;;;;;;;8.61;100.00;100879.88;7392476;19;20022;-68
2023/04/16 01:28:43;;;;;;;22.02;16.15;;;;;;;8.61;100.00;100885.13;7392365;19;20023;-68
2023/04/16 01:31:11;;;;;;;20.75;15.68;;;;;;;8.60;100.00;100886.00;7392156;19;20019;-67
2023/04/16 01:33:40;;;;;;;21.25;16.48;;;;;;;8.58;100.00;100878.16;7391610;19;20498;-67
2023/04/16 01:36:09;;;;;;;19.83;15.27;;;;;;;8.59;100.00;100884.25;7394143;19;20019;-67
2023/04/16 01:38:40;;;;;;;21.80;15.40;;;;;;;8.60;100.00;100886.00;7394043;19;20019;-66
2023/04/16 01:41:09;;;;;;;20.50;15.60;;;;;;;8.59;100.00;100882.53;7393632;19;20505;-73
2023/04/16 01:43:37;;;;;;;20.42;15.75;;;;;;;8.58;100.00;100886.03;7393304;19;20022;-72
2023/04/16 01:46:16;;;;;;;20.42;16.23;;;;;;;8.58;100.00;100879.91;7394243;19;20019;-68
2023/04/16 01:48:45;;;;;;;20.13;15.80;;;;;;;8.56;100.00;100882.53;7394376;19;20070;-68
2023/04/16 01:51:13;;;;;;;20.05;15.18;;;;;;;8.56;100.00;100894.75;7393082;19;20021;-68
2023/04/16 01:53:44;;;;;;;19.17;15.32;;;;;;;8.55;100.00;100895.66;7392475;19;20094;-68
2023/04/16 01:56:13;;;;;;;20.30;15.48;;;;;;;8.53;100.00;100893.06;7394039;19;20011;-67
2023/04/16 01:58:41;;;;;;;19.33;15.48;;;;;;;8.50;100.00;100893.06;7393499;19;20078;-67
2023/04/16 02:01:10;;;;;;;21.33;16.02;;;;;;;8.52;100.00;100904.38;7397107;19;20074;-67
2023/04/16 02:03:38;;;;;;;21.60;15.23;;;;;;;8.51;100.00;100905.25;7399320;19;20072;-67
2023/04/16 02:06:08;;;;;;;19.88;15.00;;;;;;;8.50;100.00;100908.75;7400622;19;20026;-67
2023/04/16 02:08:36;;;;;;;18.83;15.15;;;;;;;8.50;100.00;100902.69;7400146;19;20010;-68
2023/04/16 02:11:07;;;;;;;21.60;15.82;;;;;;;8.52;100.00;100909.63;7399994;19;20411;-68
2023/04/16 02:13:36;;;;;;;19.90;15.75;;;;;;;8.54;100.00;100912.22;7398038;19;20026;-68
2023/04/16 02:16:04;;;;;;;19.40;14.95;;;;;;;8.54;100.00;100920.06;7399318;19;20380;-69
2023/04/16 02:18:33;;;;;;;20.27;16.42;;;;;;;8.57;100.00;100923.50;7400617;19;20022;-67
2023/04/16 02:21:01;;;;;;;25.85;17.50;;;;;;;8.56;100.00;100921.78;7397729;19;20022;-68
2023/04/16 02:23:39;;;;;;;20.15;16.17;;;;;;;8.57;100.00;100926.13;7398865;19;20041;-68
2023/04/16 02:26:12;;;;;;;21.77;16.27;;;;;;;8.57;100.00;100923.50;7399553;19;20015;-67
2023/04/16 02:28:40;;;;;;;20.83;16.45;;;;;;;8.58;100.00;100927.88;7397095;19;20520;-67
2023/04/16 02:31:09;;;;;;;20.15;15.63;;;;;;;8.58;100.00;100921.75;7399680;19;20032;-68
2023/04/16 02:33:37;;;;;;;26.10;17.40;;;;;;;8.59;100.00;100921.75;7396755;19;20478;-68
2023/04/16 02:36:06;;;;;;;23.48;18.38;;;;;;;8.60;100.00;100922.59;7399578;19;20023;-68
2023/04/16 02:38:36;;;;;;;24.63;17.80;;;;;;;8.60;100.00;100920.00;7399488;19;20027;-68
2023/04/16 02:41:04;;;;;;;24.98;17.85;;;;;;;8.60;100.00;100923.47;7397117;19;20018;-68
2023/04/16 02:43:35;;;;;;;25.13;19.00;;;;;;;8.60;100.00;100928.69;7397708;19;20019;-68
2023/04/16 02:46:04;;;;;;;25.73;18.13;;;;;;;8.62;100.00;100928.69;7397499;19;20023;-68
2023/04/16 02:48:33;;;;;;;23.17;17.08;;;;;;;8.61;100.00;100938.28;7399197;19;20022;-68
2023/04/16 02:51:01;;;;;;;25.60;18.83;;;;;;;8.63;100.00;100933.03;7398743;19;20018;-68
2023/04/16 02:53:30;;;;;;;26.77;18.13;;;;;;;8.62;100.00;100926.94;7396928;19;20022;-68
2023/04/16 02:55:59;;;;;;;27.00;19.40;;;;;;;8.63;100.00;100926.06;7398606;19;20432;-68
2023/04/16 02:58:28;;;;;;;28.10;19.00;;;;;;;8.64;100.00;100932.16;7398903;19;20059;-68
2023/04/16 03:00:59;;;;;;;30.02;20.77;;;;;;;8.65;100.00;100928.66;7396147;19;20086;-68
2023/04/16 03:03:27;;;;;;;30.52;19.98;;;;;;;8.65;100.00;100931.28;7398117;19;20023;-68
2023/04/16 03:05:59;;;;;;;34.03;20.27;;;;;;;8.64;100.00;100935.66;7398312;19;20015;-68
2023/04/16 03:08:28;;;;;;;32.35;21.10;;;;;;;8.63;100.00;100935.63;7396519;19;20024;-68
2023/04/16 03:10:56;;;;;;;28.73;20.52;;;;;;;8.62;100.00;100937.41;7397384;19;20022;-68
2023/04/16 03:13:24;;;;;;;32.55;21.20;;;;;;;8.62;100.00;100944.41;7396057;19;20014;-68
2023/04/16 03:15:53;;;;;;;30.27;20.55;;;;;;;8.60;100.00;100936.53;7395878;19;20010;-68
2023/04/16 03:18:24;;;;;;;28.42;20.50;;;;;;;8.60;100.00;100944.38;7396174;19;20011;-68
2023/04/16 03:20:53;;;;;;;26.35;18.60;;;;;;;8.60;100.00;100944.38;7395871;19;20070;-68
2023/04/16 03:23:22;;;;;;;28.02;19.27;;;;;;;8.60;100.00;100947.00;7397162;19;20014;-68
2023/04/16 03:25:50;;;;;;;28.63;19.85;;;;;;;8.58;100.00;100948.78;7397549;19;20481;-68
2023/04/16 03:28:18;;;;;;;28.40;19.05;;;;;;;8.60;100.00;100952.22;7397951;19;20011;-68
2023/04/16 03:30:52;;;;;;;27.55;18.88;;;;;;;8.60;100.00;100951.38;7397834;19;20023;-68
2023/04/16 03:33:21;;;;;;;29.15;19.33;;;;;;;8.59;100.00;100953.13;7396373;19;20366;-68
2023/04/16 03:35:56;;;;;;;28.27;19.02;;;;;;;8.60;100.00;100952.22;7397752;19;20017;-68
2023/04/16 03:38:25;;;;;;;29.48;19.58;;;;;;;8.59;100.00;100953.13;7397990;19;20370;-68
2023/04/16 03:40:53;;;;;;;27.95;19.15;;;;;;;8.59;100.00;100952.25;7397035;19;20011;-68
2023/04/16 03:43:22;;;;;;;26.73;19.42;;;;;;;8.58;100.00;100950.50;7396256;19;20370;-69
2023/04/16 03:45:50;;;;;;;26.80;18.23;;;;;;;8.59;100.00;100958.38;7397074;19;20015;-68
2023/04/16 03:48:19;;;;;;;26.35;18.25;;;;;;;8.61;100.00;100960.97;7395063;19;20368;-68
2023/04/16 03:50:49;;;;;;;28.33;19.00;;;;;;;8.59;100.00;100966.22;7397110;19;20090;-68
2023/04/16 03:53:26;;;;;;;61.38;38.42;;;;;;;8.60;100.00;100961.84;7395382;19;20351;-69
2023/04/16 03:55:55;;;;;;;29.10;19.70;;;;;;;8.61;100.00;100961.81;7396714;19;20014;-68
2023/04/16 03:58:23;;;;;;;27.42;19.23;;;;;;;8.61;100.00;100959.19;7396454;19;20011;-68
2023/04/16 04:00:54;;;;;;;26.77;18.90;;;;;;;8.62;100.00;100966.16;7396823;19;20037;-69
2023/04/16 04:03:22;;;;;;;26.77;18.42;;;;;;;8.62;100.00;100971.41;7395207;19;20023;-68
2023/04/16 04:05:51;;;;;;;25.73;18.23;;;;;;;8.64;100.00;100968.75;7396724;19;20085;-68
2023/04/16 04:08:19;;;;;;;25.98;18.85;;;;;;;8.64;100.00;100979.22;7396019;19;20082;-68
2023/04/16 04:10:50;;;;;;;26.33;19.13;;;;;;;8.64;100.00;100980.13;7396523;19;20029;-68
2023/04/16 04:13:19;;;;;;;27.08;19.23;;;;;;;8.64;100.00;100985.34;7395420;19;20015;-68
2023/04/16 04:15:53;;;;;;;26.88;17.73;;;;;;;8.64;100.00;100990.56;7396286;19;20022;-68
2023/04/16 04:18:21;;;;;;;28.15;18.63;;;;;;;8.65;100.00;100991.44;7394388;19;20146;-68
2023/04/16 04:20:50;;;;;;;26.25;17.98;;;;;;;8.65;100.00;100996.66;7396050;19;20020;-68
2023/04/16 04:23:18;;;;;;;23.00;16.33;;;;;;;8.64;100.00;100994.91;7392940;19;20018;-68
2023/04/16 04:25:49;;;;;;;26.58;18.58;;;;;;;8.63;100.00;100999.28;7395449;19;20010;-68
2023/04/16 04:28:18;;;;;;;25.60;18.25;;;;;;;8.63;100.00;101001.91;7396141;19;20035;-68
2023/04/16 04:30:46;;;;;;;28.50;19.33;;;;;;;8.64;100.00;101006.28;7395900;19;20018;-68
2023/04/16 04:33:15;;;;;;;23.60;17.23;;;;;;;8.64;100.00;101005.38;7394745;19;20018;-68
2023/04/16 04:35:43;;;;;;;26.98;18.92;;;;;;;8.64;100.00;101005.38;7395548;19;20014;-68
2023/04/16 04:38:11;;;;;;;26.17;18.27;;;;;;;8.63;100.00;101009.75;7395687;19;20077;-68
2023/04/16 04:40:40;;;;;;;28.05;19.52;;;;;;;8.64;100.00;101016.72;7393420;19;20078;-68
2023/04/16 04:43:11;;;;;;;28.45;18.95;;;;;;;8.63;100.00;101008.88;7394908;19;20018;-68
2023/04/16 04:45:39;;;;;;;28.90;18.10;;;;;;;8.62;100.00;101012.41;7393712;19;20486;-69
2023/04/16 04:48:08;;;;;;;26.17;18.35;;;;;;;8.61;100.00;101013.28;7395301;19;20036;-68
2023/04/16 04:50:36;;;;;;;29.38;20.30;;;;;;;8.61;100.00;101015.88;7395009;19;20011;-68
2023/04/16 04:53:08;;;;;;;35.42;20.38;;;;;;;8.60;100.00;101025.47;7394217;19;20023;-69
2023/04/16 04:55:37;;;;;;;103.47;62.22;;;;;;;8.59;100.00;101020.25;7393097;19;20418;-69
2023/04/16 04:58:06;;;;;;;38.58;25.52;;;;;;;8.58;100.00;101021.13;7395252;19;20034;-69
2023/04/16 05:00:37;;;;;;;39.58;25.10;;;;;;;8.58;100.00;101031.59;7395068;19;20025;-69
2023/04/16 05:03:08;;;;;;;39.85;25.50;;;;;;;8.57;100.00;101024.66;7394351;19;20018;-69
2023/04/16 05:05:36;;;;;;;38.88;23.98;;;;;;;8.58;100.00;101031.59;7394994;19;20429;-69
2023/04/16 05:08:05;;;;;;;37.45;23.92;;;;;;;8.56;100.00;101031.63;7394433;19;20359;-69
2023/04/16 05:10:33;;;;;;;34.45;23.10;;;;;;;8.56;100.00;101033.38;7394717;19;20090;-69
2023/04/16 05:13:02;;;;;;;34.42;22.80;;;;;;;8.54;100.00;101030.75;7392077;19;20029;-69
2023/04/16 05:15:30;;;;;;;32.90;21.95;;;;;;;8.52;100.00;101039.50;7394555;19;20018;-69
2023/04/16 05:18:01;;;;;;;32.60;21.25;;;;;;;8.50;100.00;101034.28;7392538;19;20082;-69
2023/04/16 05:20:30;;;;;;;36.15;22.48;;;;;;;8.50;100.00;101043.88;7394738;19;20010;-69
2023/04/16 05:22:58;;;;;;;34.65;22.67;;;;;;;8.48;100.00;101043.91;7393685;19;20014;-69
2023/04/16 05:25:27;;;;;;;38.08;24.02;;;;;;;8.46;100.00;101041.28;7394314;19;20029;-68
2023/04/16 05:27:55;;;;;;;47.70;27.60;;;;;;;8.47;100.00;101050.00;7394155;19;20438;-68
2023/04/16 05:30:23;;;;;;;56.65;30.38;;;;;;;8.44;100.00;101047.38;7391749;19;20346;-67
2023/04/16 05:32:52;;;;;;;57.50;32.13;;;;;;;8.43;100.00;101050.88;7393478;19;20023;-68
2023/04/16 05:35:23;;;;;;;62.25;33.45;;;;;;;8.44;100.00;101049.97;7395877;19;20070;-68
2023/04/16 05:37:51;;;;;;;62.47;33.47;;;;;;;8.44;100.00;101049.97;7401746;19;20015;-68
2023/04/16 05:40:20;;;;;;;64.05;34.30;;;;;;;8.44;100.00;101048.25;7401269;19;20082;-68
2023/04/16 05:42:48;;;;;;;62.47;32.97;;;;;;;8.43;100.00;101058.72;7400809;19;20031;-69
2023/04/16 05:45:17;;;;;;;65.70;35.00;;;;;;;8.43;100.00;101056.13;7398501;19;20014;-69
2023/04/16 05:47:46;;;;;;;67.93;36.17;;;;;;;8.43;100.00;101059.59;7400895;19;20115;-69
2023/04/16 05:50:14;;;;;;;67.78;35.83;;;;;;;8.44;100.00;101060.44;7400522;19;20500;-70
2023/04/16 05:52:45;;;;;;;67.35;34.42;;;;;;;8.44;100.00;101063.94;7397744;19;20412;-69
2023/04/16 05:55:14;;;;;;;71.82;36.47;;;;;;;8.43;100.00;101066.56;7400951;19;20015;-69
2023/04/16 05:57:42;;;;;;;74.72;36.97;;;;;;;8.42;100.00;101067.44;7398322;19;20347;-68
2023/04/16 06:00:11;;;;;;;70.30;36.80;;;;;;;8.39;100.00;101065.72;7400746;19;20018;-68
2023/04/16 06:02:39;;;;;;;72.45;36.92;;;;;;;8.42;100.00;101078.75;7400352;19;20021;-69
2023/04/16 06:05:08;;;;;;;66.68;35.80;;;;;;;8.41;100.00;101079.63;7400511;19;20018;-69
2023/04/16 06:07:37;;;;;;;72.25;35.80;;;;;;;8.39;100.00;101085.75;7400468;19;20021;-69
2023/04/16 06:10:09;;;;;;;67.88;33.90;;;;;;;8.39;100.00;101084.03;7400054;19;20015;-69
2023/04/16 06:12:37;;;;;;;69.68;34.67;;;;;;;8.39;100.00;101086.66;7397822;19;20074;-69
2023/04/16 06:15:07;;;;;;;73.93;37.58;;;;;;;8.38;100.00;101092.75;7400241;19;20014;-68
2023/04/16 06:17:35;;;;;;;73.47;36.33;;;;;;;8.38;100.00;101104.94;7398481;19;20083;-68
2023/04/16 06:20:04;;;;;;;71.80;36.60;;;;;;;8.37;100.00;101092.75;7399624;19;20018;-68
2023/04/16 06:22:32;;;;;;;80.70;37.95;;;;;;;8.34;100.00;101093.66;7399714;19;20033;-68
2023/04/16 06:25:01;;;;;;;85.32;39.13;;;;;;;8.32;100.00;101101.47;7399458;19;20485;-68
2023/04/16 06:27:32;;;;;;;83.40;38.72;;;;;;;8.31;100.00;101102.38;7399370;19;20378;-68
2023/04/16 06:30:01;;;;;;;86.30;39.53;;;;;;;8.31;100.00;101102.38;7397587;19;20018;-68
2023/04/16 06:32:30;;;;;;;89.25;41.53;;;;;;;8.32;100.00;101100.63;7398994;19;20014;-68
2023/04/16 06:34:58;;;;;;;93.75;41.42;;;;;;;8.33;100.00;101104.97;7396713;19;20014;-68
2023/04/16 06:37:26;;;;;;;89.75;41.20;;;;;;;8.31;100.00;101099.78;7397134;19;20015;-68
2023/04/16 06:39:55;;;;;;;85.18;40.08;;;;;;;8.34;100.00;101100.59;7399361;19;20018;-69
2023/04/16 06:42:23;;;;;;;95.53;43.20;;;;;;;8.33;100.00;101102.38;7398901;19;20017;-69
2023/04/16 06:44:54;;;;;;;92.35;41.83;;;;;;;8.34;100.00;101105.84;7396867;19;20025;-70
2023/04/16 06:47:23;;;;;;;91.07;39.33;;;;;;;8.35;100.00;101110.19;7396997;19;20485;-70
2023/04/16 06:49:51;;;;;;;89.53;41.30;;;;;;;8.36;100.00;101106.72;7399146;19;20018;-69
2023/04/16 06:52:19;;;;;;;90.28;39.83;;;;;;;8.37;100.00;101116.28;7399048;19;20018;-68
2023/04/16 06:54:50;;;;;;;84.00;38.60;;;;;;;8.36;100.00;101107.56;7396653;19;20018;-69
2023/04/16 06:57:18;;;;;;;79.70;37.33;;;;;;;8.36;100.00;101115.41;7398468;19;20365;-68
2023/04/16 06:59:46;;;;;;;82.45;39.75;;;;;;;8.37;100.00;101113.69;7396655;19;20099;-68
2023/04/16 07:02:17;;;;;;;81.15;38.95;;;;;;;8.38;100.00;101120.63;7398567;19;20014;-68
2023/04/16 07:04:46;;;;;;;77.07;37.90;;;;;;;8.37;100.00;101121.53;7395971;19;20449;-68
2023/04/16 07:07:14;;;;;;;72.35;35.83;;;;;;;8.36;100.00;101128.47;7398297;19;20085;-68
2023/04/16 07:09:43;;;;;;;74.10;35.97;;;;;;;8.36;100.00;101120.63;7398355;19;20082;-67
2023/04/16 07:12:12;;;;;;;66.82;33.42;;;;;;;8.36;100.00;101125.00;7398255;19;20029;-69
2023/04/16 07:14:40;;;;;;;72.13;35.97;;;;;;;8.36;100.00;101127.63;7396166;19;20385;-68
2023/04/16 07:17:09;;;;;;;65.68;34.05;;;;;;;8.37;100.00;101140.69;7395610;19;20010;-68
2023/04/16 07:19:40;;;;;;;66.32;34.17;;;;;;;8.36;100.00;101133.72;7397472;19;20367;-69
2023/04/16 07:22:08;;;;;;;68.13;34.17;;;;;;;8.38;100.00;101146.75;7398063;19;20029;-68
2023/04/16 07:24:37;;;;;;;65.38;34.22;;;;;;;8.35;100.00;101139.81;7395637;19;20018;-69
2023/04/16 07:27:05;;;;;;;64.22;33.53;;;;;;;8.35;100.00;101145.03;7397639;19;20014;-68
2023/04/16 07:29:34;;;;;;;63.13;31.58;;;;;;;8.36;100.00;101146.78;7396824;19;20375;-68
2023/04/16 07:32:02;;;;;;;58.83;32.58;;;;;;;8.38;100.00;101150.25;7396727;19;20018;-68
2023/04/16 07:34:31;;;;;;;61.17;33.00;;;;;;;8.40;100.00;101158.09;7395276;19;20014;-68
2023/04/16 07:37:02;;;;;;;63.08;31.92;;;;;;;8.38;100.00;101147.66;7395317;19;20018;-68
2023/04/16 07:39:30;;;;;;;57.28;32.28;;;;;;;8.38;100.00;101158.09;7397309;19;20019;-67
2023/04/16 07:41:59;;;;;;;55.85;31.83;;;;;;;8.38;100.00;101162.44;7396761;19;20014;-68
2023/04/16 07:44:27;;;;;;;50.70;30.80;;;;;;;8.37;100.00;101160.75;7394916;19;20481;-68
2023/04/16 07:46:55;;;;;;;50.42;29.10;;;;;;;8.38;100.00;101163.34;7396928;19;20015;-68
2023/04/16 07:49:24;;;;;;;48.08;27.55;;;;;;;8.38;100.00;101165.06;7396864;19;20022;-68
2023/04/16 07:51:52;;;;;;;56.47;30.25;;;;;;;8.37;100.00;101158.13;7395126;19;20023;-68
2023/04/16 07:54:23;;;;;;;51.38;27.98;;;;;;;8.42;100.00;101164.19;7394697;19;20383;-68
2023/04/16 07:56:52;;;;;;;51.25;28.08;;;;;;;8.44;100.00;101165.91;7398476;19;20021;-68
2023/04/16 07:59:20;;;;;;;45.00;26.48;;;;;;;8.46;100.00;101172.03;7396269;19;20082;-69
2023/04/16 08:01:49;;;;;;;39.45;25.08;;;;;;;8.49;100.00;101173.75;7396687;19;20090;-68
2023/04/16 08:04:23;;;;;;;41.58;24.73;;;;;;;8.53;100.00;101169.38;7395217;19;20014;-68
2023/04/16 08:06:51;;;;;;;38.25;24.67;;;;;;;8.54;100.00;101174.59;7396226;19;20023;-68
2023/04/16 08:09:20;;;;;;;39.47;24.95;;;;;;;8.56;100.00;101180.69;7396609;19;20010;-68
2023/04/16 08:11:51;;;;;;;38.60;23.42;;;;;;;8.57;100.00;101177.19;7396379;19;20029;-69
2023/04/16 08:14:20;;;;;;;39.63;24.02;;;;;;;8.60;100.00;101186.78;7394694;19;20024;-68
2023/04/16 08:16:48;;;;;;;39.80;25.80;;;;;;;8.63;100.00;101179.78;7394763;19;20029;-68
2023/04/16 08:19:17;;;;;;;36.45;24.45;;;;;;;8.68;100.00;101186.72;7395107;19;20357;-68
2023/04/16 08:21:45;;;;;;;36.75;24.33;;;;;;;8.73;100.00;101191.06;7395296;19;20078;-68
2023/04/16 08:24:14;;;;;;;37.90;24.15;;;;;;;8.78;100.00;101193.63;7393552;19;20035;-68
2023/04/16 08:26:42;;;;;;;33.72;23.17;;;;;;;8.83;100.00;101197.06;7393245;19;20018;-68
2023/04/16 08:29:13;;;;;;;36.75;25.20;;;;;;;8.87;100.00;101196.19;7393148;19;20078;-69
2023/04/16 08:31:43;;;;;;;34.83;22.85;;;;;;;8.90;100.00;101209.22;7392593;19;20535;-68
2023/04/16 08:34:12;;;;;;;41.35;25.90;;;;;;;8.92;100.00;101203.97;7393521;19;20022;-69
2023/04/16 08:36:41;;;;;;;34.60;23.98;;;;;;;8.93;100.00;101214.47;7394828;19;20029;-69
2023/04/16 08:39:10;;;;;;;32.08;21.88;;;;;;;8.94;100.00;101208.31;7394653;19;20416;-69
2023/04/16 08:41:42;;;;;;;34.30;23.42;;;;;;;8.93;100.00;101211.84;7393203;19;20039;-69
2023/04/16 08:44:18;;;;;;;36.75;22.75;;;;;;;8.96;100.00;101218.81;7393716;19;20025;-68
2023/04/16 08:46:48;;;;;;;35.17;23.85;;;;;;;8.95;100.00;101217.91;7394688;19;20015;-68
2023/04/16 08:49:19;;;;;;;32.30;22.20;;;;;;;8.94;100.00;101224.03;7394716;19;20015;-69
2023/04/16 08:51:53;;;;;;;38.88;24.58;;;;;;;8.96;100.00;101214.41;7394353;19;20031;-68
2023/04/16 08:54:36;;;;;;;34.25;23.02;;;;;;;8.99;100.00;101223.16;7393273;19;20038;-69
2023/04/16 08:57:07;;;;;;;36.70;24.02;;;;;;;9.01;100.00;101229.22;7394841;19;20070;-68
2023/04/16 08:59:39;;;;;;;39.00;23.98;;;;;;;9.03;100.00;101225.69;7392389;19;20011;-68
2023/04/16 09:02:08;;;;;;;32.20;22.80;;;;;;;9.05;100.00;101228.31;7393925;19;20014;-66
2023/04/16 09:04:39;;;;;;;32.67;23.17;;;;;;;9.07;100.00;101234.41;7392637;19;20025;-68
2023/04/16 09:07:10;;;;;;;33.50;23.70;;;;;;;9.07;100.00;101235.28;7394763;19;20018;-68
2023/04/16 09:09:40;;;;;;;39.90;26.65;;;;;;;9.07;100.00;101232.69;7394329;19;20086;-69
2023/04/16 09:12:16;;;;;;;34.13;23.13;;;;;;;9.08;100.00;101237.00;7401753;19;20030;-67
2023/04/16 09:14:50;;;;;;;34.75;22.63;;;;;;;9.09;100.00;101237.91;7398691;19;20097;-68
2023/04/16 09:17:19;;;;;;;38.90;24.63;;;;;;;9.10;100.00;101242.25;7400327;19;20492;-67
2023/04/16 09:19:48;;;;;;;32.67;22.90;;;;;;;9.12;100.00;101243.09;7401522;19;20090;-67
2023/04/16 09:22:16;;;;;;;35.03;23.00;;;;;;;9.16;100.00;101250.03;7400962;19;20492;-68
2023/04/16 09:24:44;;;;;;;38.33;25.70;;;;;;;9.19;100.00;101247.41;7398037;19;20019;-67
2023/04/16 09:27:15;;;;;;;47.67;28.48;;;;;;;9.20;100.00;101251.75;7400798;19;20466;-66
2023/04/16 09:29:46;;;;;;;39.08;25.00;;;;;;;9.24;100.00;101252.63;7401556;19;20037;-67
2023/04/16 09:32:15;;;;;;;26.15;20.30;;;;;;;9.26;100.00;101256.06;7397748;19;20018;-67
2023/04/16 09:34:57;;;;;;;31.75;22.60;;;;;;;9.26;100.00;101250.84;7397681;19;20018;-72
2023/04/16 09:37:28;;;;;;;31.80;23.15;;;;;;;9.28;100.00;101254.31;7400858;19;20011;-69
2023/04/16 09:39:58;;;;;;;32.42;21.48;;;;;;;9.32;100.00;101255.16;7397638;19;20030;-68
2023/04/16 09:42:29;;;;;;;29.98;21.70;;;;;;;9.31;100.00;101262.13;7400065;19;20085;-68
2023/04/16 09:45:01;;;;;;;30.83;22.55;;;;;;;9.32;100.00;101263.03;7401019;19;20017;-68
2023/04/16 09:47:41;;;;;;;32.13;23.60;;;;;;;9.34;100.00;101262.13;7400156;19;20532;-69
2023/04/16 09:50:11;;;;;;;29.25;22.52;;;;;;;9.38;100.00;101265.59;7400344;19;20026;-68
2023/04/16 09:52:40;;;;;;;31.90;23.52;;;;;;;9.39;100.00;101265.56;7397345;19;20078;-68
2023/04/16 09:55:09;;;;;;;30.60;23.58;;;;;;;9.42;100.00;101270.78;7398981;19;20041;-68
2023/04/16 09:57:39;;;;;;;30.10;22.63;;;;;;;9.40;100.00;101271.66;7399757;19;20078;-67
2023/04/16 10:00:12;;;;;;;25.83;19.95;;;;;;;9.37;100.00;101275.19;7399899;19;20011;-68
2023/04/16 10:02:42;;;;;;;25.95;19.85;;;;;;;9.35;100.00;101274.34;7400614;19;20032;-68
2023/04/16 10:05:11;;;;;;;30.65;20.80;;;;;;;9.35;100.00;101276.06;7400222;19;20022;-68
2023/04/16 10:07:40;;;;;;;28.50;20.33;;;;;;;9.35;100.00;101281.31;7396972;19;20010;-68
2023/04/16 10:10:09;;;;;;;27.73;21.30;;;;;;;9.31;100.00;101280.47;7397372;19;20098;-69
2023/04/16 10:12:38;;;;;;;30.60;21.33;;;;;;;9.28;100.00;101289.22;7399301;19;20094;-68
2023/04/16 10:15:10;;;;;;;33.67;24.20;;;;;;;9.24;100.00;101286.66;7398179;19;20021;-68
2023/04/16 10:17:40;;;;;;;30.98;22.05;;;;;;;9.21;100.00;101284.03;7398050;19;20014;-68
2023/04/16 10:20:09;;;;;;;34.38;22.67;;;;;;;9.21;100.00;101287.53;7399419;19;20363;-67
2023/04/16 10:22:38;;;;;;;29.73;21.35;;;;;;;9.22;100.00;101291.88;7397460;19;20371;-68
2023/04/16 10:25:09;;;;;;;30.77;21.48;;;;;;;9.19;100.00;101293.69;7396981;19;20014;-69
2023/04/16 10:27:38;;;;;;;31.77;22.33;;;;;;;9.18;100.00;101295.41;7399114;19;20101;-69
2023/04/16 10:30:12;;;;;;;29.02;21.27;;;;;;;9.20;100.00;101300.63;7396985;19;20082;-69
2023/04/16 10:32:42;;;;;;;34.88;22.88;;;;;;;9.21;100.00;101294.50;7398648;19;20407;-69
2023/04/16 10:35:11;;;;;;;30.80;21.52;;;;;;;9.19;100.00;101301.53;7397453;19;20018;-69
2023/04/16 10:37:43;;;;;;;31.40;22.35;;;;;;;9.15;100.00;101292.81;7398880;19;20086;-69
2023/04/16 10:40:28;;;;;;;28.88;21.42;;;;;;;9.10;100.00;101300.69;7399289;19;20032;-70
2023/04/16 10:43:01;;;;;;;30.90;21.27;;;;;;;9.08;100.00;101305.06;7396165;19;20019;-69
2023/04/16 10:45:39;;;;;;;28.47;21.10;;;;;;;9.04;100.00;101305.97;7397759;19;20015;-69
2023/04/16 10:48:09;;;;;;;27.45;18.63;;;;;;;9.00;100.00;101300.75;7398253;19;21049;-69
2023/04/16 10:50:38;;;;;;;29.73;21.23;;;;;;;8.97;100.00;101306.88;7398217;19;20026;-69
2023/04/16 10:53:20;;;;;;;30.42;20.63;;;;;;;8.96;100.00;101313.88;7398484;19;20014;-70
2023/04/16 10:55:59;;;;;;;30.88;21.05;;;;;;;8.92;100.00;101320.00;7397088;19;20018;-70
2023/04/16 10:58:31;;;;;;;28.13;19.92;;;;;;;8.93;100.00;101318.25;7398094;19;20474;-70
2023/04/16 11:01:08;;;;;;;27.98;20.55;;;;;;;8.92;100.00;101314.78;7395949;19;20557;-69
2023/04/16 11:03:37;;;;;;;29.75;21.35;;;;;;;8.95;100.00;101308.66;7396856;19;20485;-69
2023/04/16 11:06:15;;;;;;;24.92;19.73;;;;;;;8.95;100.00;101317.38;7397929;19;20025;-69
2023/04/16 11:08:45;;;;;;;28.35;19.88;;;;;;;8.99;100.00;101314.75;7398185;19;20011;-69
2023/04/16 11:11:14;;;;;;;25.00;19.00;;;;;;;8.99;100.00;101312.13;7398439;19;20014;-69
2023/04/16 11:13:46;;;;;;;22.17;17.50;;;;;;;9.01;100.00;101318.19;7396652;19;20018;-69
2023/04/16 11:16:18;;;;;;;24.42;17.15;;;;;;;9.02;100.00;101319.94;7396380;19;20469;-69
2023/04/16 11:18:47;;;;;;;25.35;18.10;;;;;;;9.04;100.00;101323.44;7395688;19;20011;-70
2023/04/16 11:21:15;;;;;;;21.80;17.65;;;;;;;9.09;100.00;101321.66;7397562;19;20011;-69